Decoded Metar for LFOH (LE HAVRE in FRANCE) (IATA:LEH) | Meteo·Mobile Aviation Weather
aviador You're here:

LFOH Decoded Metar

LE HAVRE in FRANCE
Report Time2018-08-21 15:30:00
UTC Time2018-08-21 16:06:01
Flight Rules ifr IFR
Wind350° at 07 kt
W.Decomp.*RWY 04: 4.6 kt HW 5.3 kt LCW
W.Rank350° ranks 24
Current wind is below 350° avg. (9.4)
Visibility9999 m
Phenomena:N/A
Clouds:Broken 006 Hf
Overcast 040 Hf
Expected CloudBase > 800 ft AGL from Temp-Dew spread
Ceiling600 ft
Temp20°C (ISA +6)
Dew Point18°C (88% RH)
QNH1020 hPa
Density Alt1,040 ft
Elevation338 ft
Report Wrong Elevation
Raw Report
LFOH 211530Z AUTO 35007KT 320V050 9999 BKN006 OVC040 20/18 Q1020
NOSIG=

Extra information for LFOH:More info

Metar Taf Metar & Taf Last 4 Metars F.Rules Stats Wind Profile Meteogram Temp Stats Airport Information Weather charts Add Link Nearby VenuesMetar ALERT Operation Metar Decoded Social comments